METAR Data
IDs: Format: Raw Decoded Include TAF

Data at: 2137 UTC 18 Apr 2021

KDED 182115Z AUTO 14005KT 10SM OVC046 26/19 A2987 RMK AO2 T02630194
KDED 182055Z AUTO 00000KT 10SM SCT032 OVC050 26/19 A2987 RMK AO2 P0001 T02630193 60002
KDED 182035Z AUTO 12003KT 10SM SCT050 BKN055 OVC070 26/19 A2987 RMK AO2 P0001 T02630192
KDED 182015Z AUTO 00000KT 10SM OVC060 26/19 A2987 RMK AO2 T02590186
KDED 181955Z AUTO 12003KT 10SM BKN060 BKN080 26/19 A2987 RMK AO2 T02630190
KDED 181935Z AUTO 00000KT 10SM BKN080 26/19 A2988 RMK AO2 T02600186
KDED 181915Z AUTO 00000KT 10SM SCT080 25/18 A2989 RMK AO2 T02540179
KDED 181855Z AUTO 00000KT 10SM CLR 25/18 A2990 RMK AO2 P0001 T02510180
KDED 181835Z AUTO 00000KT 10SM CLR 25/18 A2990 RMK AO2 T02540181
KDED 181815Z AUTO 00000KT 10SM CLR 25/18 A2991 RMK AO2 T02480178
KDED 181755Z AUTO 00000KT 10SM CLR 24/18 A2991 RMK AO2 P0001 T02400176 10242 20200 60008
KDED 181735Z AUTO 11005KT 10SM CLR 24/18 A2992 RMK AO2 P0001 T02360179
KDED 181715Z AUTO 11004KT 10SM CLR 23/18 A2993 RMK AO2 T02270177
KDED 181655Z AUTO 08004KT 10SM BKN037 21/17 A2995 RMK AO2 P0001 T02100172
KDED 181635Z AUTO 02007KT 10SM OVC039 21/18 A2997 RMK AO2 LTG DSNT E P0001 T02100176
KDED 181615Z AUTO 01007KT 10SM OVC037 21/18 A2998 RMK AO2 LTG DSNT E T02140180
KDED 181555Z AUTO 35010KT 10SM SCT015 BKN034 OVC041 21/18 A2999 RMK AO2 LTG DSNT E P0001 T02110182
KDED 181535Z AUTO 33012G16KT 10SM SCT015 BKN031 OVC043 22/19 A3001 RMK AO2 LTG DSNT NE AND E P0001 T02200187
KDED 181515Z AUTO 00000KT 10SM SCT009 BKN023 OVC031 21/19 A2998 RMK AO2 LTG DSNT NE T02150190
KDED 181455Z AUTO 33011G17KT 10SM SCT007 BKN011 OVC020 21/19 A2998 RMK AO2 LTG DSNT N AND NE P0002 T02120191 60005
KDED 181435Z AUTO 00000KT 10SM SCT007 BKN012 OVC043 22/20 A2997 RMK AO2 LTG DSNT NW THRU NE P0001 T02200202
KDED 181415Z AUTO 35003KT 10SM SCT012 OVC041 22/20 A2996 RMK AO2 LTG DSNT NW P0001 T02160201
KDED 181355Z AUTO 00000KT 10SM -RA OVC041 21/20 A2994 RMK AO2 LTG DSNT NW P0001 T02100198
KDED 181335Z AUTO 00000KT 10SM -RA SCT013 BKN041 OVC047 21/20 A2993 RMK AO2 LTG DSNT NW P0001 T02110197
KDED 181315Z AUTO 12003KT 10SM BKN013 BKN025 OVC043 21/20 A2994 RMK AO2 LTG DSNT W T02070195
KDED 181255Z AUTO 02007KT 10SM SCT007 BKN012 OVC041 21/19 A2994 RMK AO2 P0002 T02060194
KDED 181235Z AUTO 14003KT 10SM BKN043 BKN075 21/20 A2994 RMK AO2 P0001 T02130200
KDED 181215Z AUTO 00000KT 10SM SCT043 SCT050 21/20 A2994 RMK AO2 P0001 T02060196
KDED 181155Z AUTO 00000KT 10SM OVC050 20/19 A2993 RMK AO2 P0002 T01990193 10200 20183 60007 70018
KDED 181135Z AUTO 00000KT 10SM SCT020 OVC050 19/19 A2993 RMK AO2 P0001 T01940190
KDED 181115Z AUTO 00000KT 10SM SCT020 OVC048 19/19 A2993 RMK AO2 P0001 T01900187
KDED 181055Z AUTO 00000KT 10SM BKN048 19/18 A2993 RMK AO2 P0002 T01870184
KDED 181035Z AUTO 00000KT 4SM BR SCT050 18/18 A2992 RMK AO2 P0001 T01850182
KDED 181015Z AUTO 00000KT 5SM BR SCT050 18/18 A2991 RMK AO2 P0001 T01850182
KDED 180955Z AUTO 00000KT 10SM OVC050 19/18 A2991 RMK AO2 P0003 T01870184
KDED 180935Z AUTO 00000KT 10SM OVC050 19/18 A2991 RMK AO2 P0002 T01870184
KDED 180910Z AUTO 33004KT 7SM SCT050 19/18 A2991 RMK AO2 P0001 T01880185
KDED 180855Z AUTO 00000KT 10SM CLR 19/19 A2990 RMK AO2 T01900185
KDED 180835Z AUTO 21003KT 10SM SCT050 SCT065 SCT085 19/19 A2989 RMK AO2 T01920188
KDED 180815Z AUTO 00000KT 10SM SCT050 BKN065 OVC090 19/19 A2990 RMK AO2 T01930188
KDED 180755Z AUTO 00000KT 10SM SCT055 SCT075 19/19 A2990 RMK AO2 T01930187
KDED 180735Z AUTO 00000KT 10SM CLR 19/19 A2991 RMK AO2 T01920187
KDED 180715Z AUTO 17005KT 10SM SCT060 SCT090 19/19 A2990 RMK AO2 T01920187
KDED 180655Z AUTO 17005KT 10SM BKN060 19/19 A2991 RMK AO2 T01930189
KDED 180635Z AUTO 00000KT 10SM CLR 19/19 A2991 RMK AO2 T01920188
KDED 180615Z AUTO 17003KT 10SM SCT050 19/19 A2990 RMK AO2 T01920187
KDED 180555Z AUTO 14003KT 10SM BKN048 BKN050 19/19 A2991 RMK AO2 T01920187 10214 20192 60001
KDED 180535Z AUTO 00000KT 10SM OVC043 19/19 A2992 RMK AO2 T01950188
KDED 180515Z AUTO 08003KT 10SM BKN041 19/19 A2993 RMK AO2 T01950189
KDED 180455Z AUTO 10004KT 10SM BKN043 BKN085 19/19 A2993 RMK AO2 T01930187
KDED 180435Z AUTO 09005KT 10SM -RA SCT005 BKN039 OVC047 19/19 A2994 RMK AO2 T01950189
KDED 180415Z AUTO 33003KT 7SM RA BR SCT005 BKN009 OVC020 20/19 A2995 RMK AO2 T01970191
KDED 180355Z AUTO 36011KT 10SM -RA SCT011 OVC021 20/19 A2995 RMK AO2 LTG DSNT N AND NW T01990192
KDED 180335Z AUTO 01006KT 10SM RA SCT009 OVC023 20/19 A2994 RMK AO2 LTG DSNT N T02030192
KDED 180315Z AUTO 10012KT 10SM BKN007 OVC021 21/19 A2992 RMK AO2 T02050190
KDED 180255Z AUTO 02003KT 10SM BKN023 OVC031 20/19 A2993 RMK AO2 LTG DSNT N T02050193 60001
KDED 180235Z AUTO 06005KT 10SM SCT007 BKN023 OVC090 20/19 A2992 RMK AO2 LTG DSNT NE T02050193
KDED 180215Z AUTO 08005KT 10SM BKN090 20/19 A2989 RMK AO2 LTG DSNT NW THRU NE T02050193
KDED 180150Z AUTO 08003KT 10SM SCT030 BKN075 OVC080 21/19 A2989 RMK AO2 LTG DSNT NW T02060194
KDED 180135Z AUTO 00000KT 10SM SCT060 OVC075 21/20 A2989 RMK AO2 LTG DSNT NW THRU NE T02080196
KDED 180115Z AUTO 07003KT 10SM SCT060 OVC075 21/20 A2989 RMK AO2 LTG DSNT W THRU NE T02100197
KDED 180055Z AUTO 09003KT 10SM OVC060 21/20 A2988 RMK AO2 LTG DSNT NW THRU NE P0001 T02100197
KDED 180035Z AUTO 09004KT 10SM VCTS BKN060 21/20 A2987 RMK AO2 LTG DSNT N AND W P0001 T02110197
KDED 180015Z AUTO 11005KT 10SM VCTS SCT037 SCT050 21/20 A2986 RMK AO2 LTG DSNT W THRU N P0001 T02120197
KDED 172355Z AUTO 08005KT 10SM SCT037 SCT050 22/20 A2986 RMK AO2 LTG DSNT NW T02150202 10282 20215 402870175
KDED 172335Z AUTO 07005KT 10SM SCT036 22/20 A2985 RMK AO2 T02210203
KDED 172315Z AUTO 07006KT 10SM CLR 23/20 A2984 RMK AO2 LTG DSNT NW T02260202
KDED 172255Z AUTO 06005KT 10SM CLR 23/21 A2984 RMK AO2 T02330206
KDED 172235Z AUTO 04005KT 10SM CLR 24/21 A2985 RMK AO2 T02350207
KDED 172215Z AUTO 02004KT 10SM SCT010 23/21 A2984 RMK AO2 T02350207
KDED 172155Z AUTO 05005KT 10SM SCT010 SCT034 BKN085 23/21 A2984 RMK AO2 T02340208
KDED 172135Z AUTO 02007KT 10SM SCT009 SCT017 OVC085 23/21 A2984 RMK AO2 T02300209
KDED 172115Z AUTO 02007KT 10SM SCT009 BKN021 OVC046 23/21 A2983 RMK AO2 T02290211
KDED 172055Z AUTO 02011KT 10SM SCT026 BKN032 OVC039 25/22 A2982 RMK AO2 T02450219
KDED 172035Z AUTO 29003KT 10SM BKN030 BKN038 OVC060 27/23 A2982 RMK AO2 T02670226
KDED 172015Z AUTO 32003KT 10SM SCT032 BKN039 OVC085 26/23 A2982 RMK AO2 T02650233
KDED 171955Z AUTO 34006KT 10SM BKN035 BKN046 OVC060 26/23 A2982 RMK AO2 T02620232
KDED 171935Z AUTO 31007KT 10SM -RA SCT033 BKN046 OVC095 27/22 A2983 RMK AO2 T02710224
KDED 171915Z AUTO 28006KT 10SM -RA SCT028 BKN036 BKN044 28/22 A2984 RMK AO2 T02800218
KDED 171855Z AUTO 26011G15KT 10SM BKN028 BKN037 OVC065 28/21 A2984 RMK AO2 T02760211
KDED 171835Z AUTO 24007KT 10SM -RA SCT026 BKN035 OVC049 27/21 A2985 RMK AO2 T02700214
KDED 171815Z AUTO 24008KT 10SM SCT028 BKN033 OVC040 28/21 A2986 RMK AO2 T02760213
KDED 171755Z AUTO 24006KT 10SM SCT025 BKN031 BKN037 28/21 A2986 RMK AO2 P0001 T02800213 10287 20190 60010
KDED 171735Z AUTO 21010G15KT 10SM BKN023 BKN031 OVC040 27/21 A2986 RMK AO2 T02750213
KDED 171715Z AUTO 19008KT 10SM SCT017 BKN021 OVC034 27/22 A2986 RMK AO2 T02660217
KDED 171655Z AUTO 23006KT 10SM BKN017 OVC023 26/22 A2988 RMK AO2 T02640220
KDED 171635Z AUTO 22009KT 10SM BKN017 OVC023 26/22 A2988 RMK AO2 T02610218
KDED 171615Z AUTO 26008KT 10SM OVC013 25/22 A2989 RMK AO2 T02510218
KDED 171555Z AUTO 23010KT 10SM OVC011 25/22 A2990 RMK AO2 P0001 T02460221
KDED 171535Z AUTO 20007KT 10SM BKN009 OVC013 24/22 A2990 RMK AO2 P0001 T02380219
KDED 171515Z AUTO 16003KT 10SM BKN007 OVC019 23/21 A2990 RMK AO2 T02260212
KDED 171455Z AUTO 00000KT 10SM OVC003 21/21 A2990 RMK AO2 P0003 T02140206 60008
KDED 171435Z AUTO 00000KT 10SM -RA BKN003 BKN012 OVC050 21/20 A2990 RMK AO2 P0002 T02080203
KDED 171415Z AUTO 18004KT 7SM RA SCT003 BKN046 OVC090 21/20 A2991 RMK AO2 P0001 T02060201
KDED 171355Z AUTO 00000KT 3SM -RA BR SCT003 BKN036 OVC090 20/20 A2990 RMK AO2 LTG DSNT SW P0002 T02040199
KDED 171335Z AUTO 00000KT 2 1/2SM -VCTSRA BR SCT004 BKN036 OVC060 20/20 A2992 RMK AO2 LTG DSNT SW AND W P0001 T02020197
KDED 171315Z AUTO 00000KT 3 1/2SM VCTSRA BR SCT004 BKN037 OVC070 20/20 A2992 RMK AO2 LTG DSNT SE THRU W T02000196
KDED 171255Z AUTO 27005KT 3 1/2SM -TSRA BR SCT006 BKN040 OVC095 20/19 A2992 RMK AO2 LTG DSNT S AND SW P0002 T01970193
KDED 171235Z AUTO 33006KT 2 1/2SM +VCTSRA BR SCT003 BKN038 OVC080 20/19 A2991 RMK AO2 LTG DSNT S THRU W P0001 T01950191
KDED 171215Z AUTO 23004KT 4SM TSRA BR SCT034 BKN070 OVC120 19/19 A2988 RMK AO2 LTG DSNT NE AND W P0001 T01940189
KDED 171155Z AUTO 00000KT 7SM -RA SCT017 BKN060 OVC120 19/19 A2988 RMK AO2 LTG DSNT W THRU NE T01910185 10193 20184 60001 70002
KDED 171135Z AUTO 36004KT 10SM SCT032 BKN060 BKN080 19/18 A2987 RMK AO2 LTG DSNT W T01900184
KDED 171115Z AUTO 34005KT 10SM SCT032 SCT044 BKN060 19/18 A2987 RMK AO2 LTG DSNT W T01910185
KDED 171055Z AUTO 03003KT 10SM SCT032 BKN055 OVC075 19/18 A2985 RMK AO2 LTG DSNT NE T01910184
KDED 171035Z AUTO 00000KT 10SM VCTS BKN055 BKN085 19/18 A2984 RMK AO2 LTG DSNT W T01920184
KDED 171015Z AUTO 00000KT 10SM SCT033 SCT040 BKN085 19/18 A2983 RMK AO2 LTG DSNT W THRU NE T01910183
KDED 170955Z AUTO 00000KT 10SM SCT032 OVC055 19/18 A2985 RMK AO2 LTG DSNT NE AND W T01890182